sensor_id;sensor_type;location;lat;lon;timestamp;P1;durP1;ratioP1;P2;durP2;ratioP2
17253;SDS011;32542;52.832;13.816;2022-10-22T00:01:01;17.83;;;12.18;;
17253;SDS011;32542;52.832;13.816;2022-10-22T00:04:04;16.77;;;11.50;;
17253;SDS011;32542;52.832;13.816;2022-10-22T00:07:07;15.77;;;10.88;;
17253;SDS011;32542;52.832;13.816;2022-10-22T00:10:09;16.20;;;11.23;;
17253;SDS011;32542;52.832;13.816;2022-10-22T00:13:14;17.13;;;11.25;;
17253;SDS011;32542;52.832;13.816;2022-10-22T00:16:17;17.35;;;11.52;;
17253;SDS011;32542;52.832;13.816;2022-10-22T00:19:20;18.17;;;11.52;;
17253;SDS011;32542;52.832;13.816;2022-10-22T00:22:22;15.30;;;11.60;;
17253;SDS011;32542;52.832;13.816;2022-10-22T00:25:25;18.40;;;11.05;;
17253;SDS011;32542;52.832;13.816;2022-10-22T00:28:29;16.77;;;11.07;;
17253;SDS011;32542;52.832;13.816;2022-10-22T00:31:32;16.80;;;10.90;;
17253;SDS011;32542;52.832;13.816;2022-10-22T00:34:35;21.80;;;11.10;;
17253;SDS011;32542;52.832;13.816;2022-10-22T00:37:38;17.73;;;11.10;;
17253;SDS011;32542;52.832;13.816;2022-10-22T00:40:41;19.98;;;11.57;;
17253;SDS011;32542;52.832;13.816;2022-10-22T00:43:56;16.60;;;11.32;;
17253;SDS011;32542;52.832;13.816;2022-10-22T00:47:00;15.20;;;10.88;;
17253;SDS011;32542;52.832;13.816;2022-10-22T00:50:03;14.55;;;10.45;;
17253;SDS011;32542;52.832;13.816;2022-10-22T00:53:10;17.17;;;10.55;;
17253;SDS011;32542;52.832;13.816;2022-10-22T00:56:16;14.98;;;10.27;;
17253;SDS011;32542;52.832;13.816;2022-10-22T00:59:20;15.82;;;10.50;;
17253;SDS011;32542;52.832;13.816;2022-10-22T01:02:23;14.93;;;10.63;;
17253;SDS011;32542;52.832;13.816;2022-10-22T01:05:27;16.75;;;10.77;;
17253;SDS011;32542;52.832;13.816;2022-10-22T01:08:32;18.65;;;10.68;;
17253;SDS011;32542;52.832;13.816;2022-10-22T01:11:48;15.00;;;10.52;;
17253;SDS011;32542;52.832;13.816;2022-10-22T01:15:02;15.07;;;10.60;;
17253;SDS011;32542;52.832;13.816;2022-10-22T01:18:16;16.17;;;10.45;;
17253;SDS011;32542;52.832;13.816;2022-10-22T01:21:25;15.82;;;10.43;;
17253;SDS011;32542;52.832;13.816;2022-10-22T01:24:36;14.80;;;10.45;;
17253;SDS011;32542;52.832;13.816;2022-10-22T01:27:50;13.60;;;10.18;;
17253;SDS011;32542;52.832;13.816;2022-10-22T01:31:00;14.57;;;10.10;;
17253;SDS011;32542;52.832;13.816;2022-10-22T01:34:07;14.68;;;9.68;;
17253;SDS011;32542;52.832;13.816;2022-10-22T01:37:11;14.77;;;10.43;;
17253;SDS011;32542;52.832;13.816;2022-10-22T01:40:16;15.77;;;11.18;;
17253;SDS011;32542;52.832;13.816;2022-10-22T01:43:20;15.75;;;9.63;;
17253;SDS011;32542;52.832;13.816;2022-10-22T01:46:25;14.30;;;10.52;;
17253;SDS011;32542;52.832;13.816;2022-10-22T01:49:32;14.13;;;10.07;;
17253;SDS011;32542;52.832;13.816;2022-10-22T01:52:50;15.07;;;10.15;;
17253;SDS011;32542;52.832;13.816;2022-10-22T01:56:05;13.68;;;9.68;;
17253;SDS011;32542;52.832;13.816;2022-10-22T01:59:20;13.60;;;9.10;;
17253;SDS011;32542;52.832;13.816;2022-10-22T02:02:32;12.57;;;9.40;;
17253;SDS011;32542;52.832;13.816;2022-10-22T02:05:43;11.77;;;8.93;;
17253;SDS011;32542;52.832;13.816;2022-10-22T02:08:51;11.27;;;8.95;;
17253;SDS011;32542;52.832;13.816;2022-10-22T02:11:56;15.68;;;10.25;;
17253;SDS011;32542;52.832;13.816;2022-10-22T02:15:01;12.23;;;9.32;;
17253;SDS011;32542;52.832;13.816;2022-10-22T02:18:07;12.57;;;9.18;;
17253;SDS011;32542;52.832;13.816;2022-10-22T02:21:11;12.68;;;10.00;;
17253;SDS011;32542;52.832;13.816;2022-10-22T02:24:15;12.88;;;8.80;;
17253;SDS011;32542;52.832;13.816;2022-10-22T02:27:21;13.43;;;8.77;;
17253;SDS011;32542;52.832;13.816;2022-10-22T02:30:29;12.40;;;8.63;;
17253;SDS011;32542;52.832;13.816;2022-10-22T02:33:37;14.07;;;9.35;;
17253;SDS011;32542;52.832;13.816;2022-10-22T02:36:46;13.35;;;9.38;;
17253;SDS011;32542;52.832;13.816;2022-10-22T02:39:51;12.52;;;8.70;;
17253;SDS011;32542;52.832;13.816;2022-10-22T02:42:55;13.80;;;9.43;;
17253;SDS011;32542;52.832;13.816;2022-10-22T02:45:58;13.65;;;9.05;;
17253;SDS011;32542;52.832;13.816;2022-10-22T02:49:02;12.85;;;9.63;;
17253;SDS011;32542;52.832;13.816;2022-10-22T02:52:05;12.68;;;9.30;;
17253;SDS011;32542;52.832;13.816;2022-10-22T02:55:08;11.32;;;8.85;;
17253;SDS011;32542;52.832;13.816;2022-10-22T02:58:11;11.98;;;8.50;;
17253;SDS011;32542;52.832;13.816;2022-10-22T03:01:14;11.45;;;8.60;;
17253;SDS011;32542;52.832;13.816;2022-10-22T03:04:18;11.20;;;8.38;;
17253;SDS011;32542;52.832;13.816;2022-10-22T03:07:21;11.15;;;8.52;;
17253;SDS011;32542;52.832;13.816;2022-10-22T03:10:24;11.23;;;8.15;;
17253;SDS011;32542;52.832;13.816;2022-10-22T03:13:27;13.43;;;8.75;;
17253;SDS011;32542;52.832;13.816;2022-10-22T03:16:30;12.02;;;8.38;;
17253;SDS011;32542;52.832;13.816;2022-10-22T03:19:34;11.82;;;8.30;;
17253;SDS011;32542;52.832;13.816;2022-10-22T03:22:38;11.50;;;8.73;;
17253;SDS011;32542;52.832;13.816;2022-10-22T03:25:43;13.48;;;8.73;;
17253;SDS011;32542;52.832;13.816;2022-10-22T03:28:49;10.13;;;8.40;;
17253;SDS011;32542;52.832;13.816;2022-10-22T03:31:53;11.27;;;8.35;;
17253;SDS011;32542;52.832;13.816;2022-10-22T03:34:58;13.95;;;8.45;;
17253;SDS011;32542;52.832;13.816;2022-10-22T03:38:05;13.05;;;8.70;;
17253;SDS011;32542;52.832;13.816;2022-10-22T03:41:08;10.77;;;8.05;;
17253;SDS011;32542;52.832;13.816;2022-10-22T03:44:11;9.75;;;8.13;;
17253;SDS011;32542;52.832;13.816;2022-10-22T03:47:16;10.05;;;7.68;;
17253;SDS011;32542;52.832;13.816;2022-10-22T03:50:20;10.07;;;7.65;;
17253;SDS011;32542;52.832;13.816;2022-10-22T03:53:23;11.27;;;8.13;;
17253;SDS011;32542;52.832;13.816;2022-10-22T03:56:25;10.57;;;8.13;;
17253;SDS011;32542;52.832;13.816;2022-10-22T03:59:32;10.80;;;7.63;;
17253;SDS011;32542;52.832;13.816;2022-10-22T04:02:36;10.50;;;8.07;;
17253;SDS011;32542;52.832;13.816;2022-10-22T04:05:40;10.95;;;7.10;;
17253;SDS011;32542;52.832;13.816;2022-10-22T04:08:43;11.32;;;8.00;;
17253;SDS011;32542;52.832;13.816;2022-10-22T04:11:47;11.10;;;7.97;;
17253;SDS011;32542;52.832;13.816;2022-10-22T04:14:50;10.50;;;7.80;;
17253;SDS011;32542;52.832;13.816;2022-10-22T04:17:53;8.45;;;6.95;;
17253;SDS011;32542;52.832;13.816;2022-10-22T04:20:57;11.43;;;7.82;;
17253;SDS011;32542;52.832;13.816;2022-10-22T04:24:00;10.23;;;7.70;;
17253;SDS011;32542;52.832;13.816;2022-10-22T04:27:03;9.50;;;7.22;;
17253;SDS011;32542;52.832;13.816;2022-10-22T04:30:06;11.55;;;7.65;;
17253;SDS011;32542;52.832;13.816;2022-10-22T04:33:10;10.85;;;7.72;;
17253;SDS011;32542;52.832;13.816;2022-10-22T04:36:15;11.73;;;7.38;;
17253;SDS011;32542;52.832;13.816;2022-10-22T04:39:19;10.77;;;8.00;;
17253;SDS011;32542;52.832;13.816;2022-10-22T04:42:22;9.25;;;7.13;;
17253;SDS011;32542;52.832;13.816;2022-10-22T04:45:24;10.68;;;7.55;;
17253;SDS011;32542;52.832;13.816;2022-10-22T04:48:27;10.05;;;7.25;;
17253;SDS011;32542;52.832;13.816;2022-10-22T04:51:31;11.20;;;6.95;;
17253;SDS011;32542;52.832;13.816;2022-10-22T04:54:34;10.10;;;7.32;;
17253;SDS011;32542;52.832;13.816;2022-10-22T04:57:37;9.93;;;7.30;;
17253;SDS011;32542;52.832;13.816;2022-10-22T05:00:41;9.45;;;7.20;;
17253;SDS011;32542;52.832;13.816;2022-10-22T05:03:44;10.25;;;7.53;;
17253;SDS011;32542;52.832;13.816;2022-10-22T05:06:49;9.60;;;6.95;;
17253;SDS011;32542;52.832;13.816;2022-10-22T05:09:53;9.27;;;7.03;;
17253;SDS011;32542;52.832;13.816;2022-10-22T05:12:55;9.55;;;7.13;;
17253;SDS011;32542;52.832;13.816;2022-10-22T05:15:59;9.77;;;7.13;;
17253;SDS011;32542;52.832;13.816;2022-10-22T05:19:03;9.30;;;6.93;;
17253;SDS011;32542;52.832;13.816;2022-10-22T05:22:08;10.95;;;7.43;;
17253;SDS011;32542;52.832;13.816;2022-10-22T05:25:11;8.98;;;7.10;;
17253;SDS011;32542;52.832;13.816;2022-10-22T05:28:14;9.38;;;7.05;;
17253;SDS011;32542;52.832;13.816;2022-10-22T05:31:17;8.98;;;7.00;;
17253;SDS011;32542;52.832;13.816;2022-10-22T05:34:21;8.23;;;6.18;;
17253;SDS011;32542;52.832;13.816;2022-10-22T05:37:25;8.40;;;6.55;;
17253;SDS011;32542;52.832;13.816;2022-10-22T05:40:28;10.95;;;7.03;;
17253;SDS011;32542;52.832;13.816;2022-10-22T05:43:32;10.43;;;6.72;;
17253;SDS011;32542;52.832;13.816;2022-10-22T05:46:35;8.25;;;6.78;;
17253;SDS011;32542;52.832;13.816;2022-10-22T05:49:38;8.10;;;6.68;;
17253;SDS011;32542;52.832;13.816;2022-10-22T05:52:42;8.30;;;6.80;;
17253;SDS011;32542;52.832;13.816;2022-10-22T05:55:45;8.77;;;6.05;;
17253;SDS011;32542;52.832;13.816;2022-10-22T05:58:48;9.02;;;6.13;;
17253;SDS011;32542;52.832;13.816;2022-10-22T06:01:51;8.88;;;6.40;;
17253;SDS011;32542;52.832;13.816;2022-10-22T06:04:54;7.45;;;5.70;;
17253;SDS011;32542;52.832;13.816;2022-10-22T06:07:58;8.15;;;6.75;;
17253;SDS011;32542;52.832;13.816;2022-10-22T06:11:02;8.30;;;6.43;;
17253;SDS011;32542;52.832;13.816;2022-10-22T06:14:05;9.38;;;6.28;;
17253;SDS011;32542;52.832;13.816;2022-10-22T06:17:08;8.45;;;5.93;;
17253;SDS011;32542;52.832;13.816;2022-10-22T06:20:12;8.40;;;6.00;;
17253;SDS011;32542;52.832;13.816;2022-10-22T06:23:17;8.05;;;5.93;;
17253;SDS011;32542;52.832;13.816;2022-10-22T06:26:20;7.75;;;6.20;;
17253;SDS011;32542;52.832;13.816;2022-10-22T06:29:23;8.77;;;6.63;;
17253;SDS011;32542;52.832;13.816;2022-10-22T06:32:26;7.88;;;5.88;;
17253;SDS011;32542;52.832;13.816;2022-10-22T06:35:28;8.93;;;6.32;;
17253;SDS011;32542;52.832;13.816;2022-10-22T06:38:33;7.47;;;6.28;;
17253;SDS011;32542;52.832;13.816;2022-10-22T06:41:36;8.38;;;6.53;;
17253;SDS011;32542;52.832;13.816;2022-10-22T06:44:39;9.63;;;5.85;;
17253;SDS011;32542;52.832;13.816;2022-10-22T06:47:41;8.82;;;6.15;;
17253;SDS011;32542;52.832;13.816;2022-10-22T06:50:44;7.63;;;5.90;;
17253;SDS011;32542;52.832;13.816;2022-10-22T06:53:49;8.32;;;6.22;;
17253;SDS011;32542;52.832;13.816;2022-10-22T06:56:52;8.60;;;6.35;;
17253;SDS011;32542;52.832;13.816;2022-10-22T06:59:55;7.68;;;6.15;;
17253;SDS011;32542;52.832;13.816;2022-10-22T07:02:57;7.38;;;5.80;;
17253;SDS011;32542;52.832;13.816;2022-10-22T07:06:01;8.00;;;6.32;;
17253;SDS011;32542;52.832;13.816;2022-10-22T07:09:07;7.72;;;6.20;;
17253;SDS011;32542;52.832;13.816;2022-10-22T07:12:10;7.95;;;6.07;;
17253;SDS011;32542;52.832;13.816;2022-10-22T07:15:14;7.82;;;6.00;;
17253;SDS011;32542;52.832;13.816;2022-10-22T07:18:16;9.32;;;6.55;;
17253;SDS011;32542;52.832;13.816;2022-10-22T07:21:19;6.63;;;5.13;;
17253;SDS011;32542;52.832;13.816;2022-10-22T07:24:24;7.30;;;5.75;;
17253;SDS011;32542;52.832;13.816;2022-10-22T07:27:27;7.80;;;5.88;;
17253;SDS011;32542;52.832;13.816;2022-10-22T07:30:30;8.25;;;6.28;;
17253;SDS011;32542;52.832;13.816;2022-10-22T07:33:33;7.70;;;6.13;;
17253;SDS011;32542;52.832;13.816;2022-10-22T07:36:36;6.72;;;5.38;;
17253;SDS011;32542;52.832;13.816;2022-10-22T07:39:40;6.90;;;5.43;;
17253;SDS011;32542;52.832;13.816;2022-10-22T07:42:43;8.27;;;6.05;;
17253;SDS011;32542;52.832;13.816;2022-10-22T07:45:45;6.63;;;5.63;;
17253;SDS011;32542;52.832;13.816;2022-10-22T07:48:48;6.53;;;5.43;;
17253;SDS011;32542;52.832;13.816;2022-10-22T07:51:51;6.50;;;5.15;;
17253;SDS011;32542;52.832;13.816;2022-10-22T07:54:56;7.60;;;5.55;;
17253;SDS011;32542;52.832;13.816;2022-10-22T07:57:59;6.93;;;5.72;;
17253;SDS011;32542;52.832;13.816;2022-10-22T08:01:02;7.05;;;5.85;;
17253;SDS011;32542;52.832;13.816;2022-10-22T08:04:07;8.73;;;6.18;;
17253;SDS011;32542;52.832;13.816;2022-10-22T08:07:11;9.88;;;7.00;;
17253;SDS011;32542;52.832;13.816;2022-10-22T08:10:16;11.02;;;6.55;;
17253;SDS011;32542;52.832;13.816;2022-10-22T08:13:19;9.70;;;6.25;;
17253;SDS011;32542;52.832;13.816;2022-10-22T08:16:22;10.43;;;6.93;;
17253;SDS011;32542;52.832;13.816;2022-10-22T08:19:25;8.35;;;6.45;;
17253;SDS011;32542;52.832;13.816;2022-10-22T08:22:29;9.00;;;6.78;;
17253;SDS011;32542;52.832;13.816;2022-10-22T08:25:33;10.10;;;6.32;;
17253;SDS011;32542;52.832;13.816;2022-10-22T08:28:36;9.30;;;6.57;;
17253;SDS011;32542;52.832;13.816;2022-10-22T08:31:39;9.85;;;6.60;;
17253;SDS011;32542;52.832;13.816;2022-10-22T08:34:42;9.02;;;6.25;;
17253;SDS011;32542;52.832;13.816;2022-10-22T08:37:45;9.13;;;5.50;;
17253;SDS011;32542;52.832;13.816;2022-10-22T08:40:50;10.13;;;5.80;;
17253;SDS011;32542;52.832;13.816;2022-10-22T08:43:58;7.82;;;4.90;;
17253;SDS011;32542;52.832;13.816;2022-10-22T08:47:26;6.60;;;4.50;;
17253;SDS011;32542;52.832;13.816;2022-10-22T08:50:44;10.25;;;5.13;;
17253;SDS011;32542;52.832;13.816;2022-10-22T08:53:52;13.05;;;5.93;;
17253;SDS011;32542;52.832;13.816;2022-10-22T08:57:15;8.75;;;5.40;;
17253;SDS011;32542;52.832;13.816;2022-10-22T09:00:27;7.78;;;4.75;;
17253;SDS011;32542;52.832;13.816;2022-10-22T09:03:35;11.32;;;5.65;;
17253;SDS011;32542;52.832;13.816;2022-10-22T09:06:47;8.45;;;5.90;;
17253;SDS011;32542;52.832;13.816;2022-10-22T09:09:54;11.95;;;6.55;;
17253;SDS011;32542;52.832;13.816;2022-10-22T09:13:02;9.45;;;6.03;;
17253;SDS011;32542;52.832;13.816;2022-10-22T09:16:10;6.72;;;5.22;;
17253;SDS011;32542;52.832;13.816;2022-10-22T09:19:17;8.10;;;5.68;;
17253;SDS011;32542;52.832;13.816;2022-10-22T09:22:31;9.93;;;6.28;;
17253;SDS011;32542;52.832;13.816;2022-10-22T09:25:39;9.15;;;5.85;;
17253;SDS011;32542;52.832;13.816;2022-10-22T09:28:49;7.18;;;5.63;;
17253;SDS011;32542;52.832;13.816;2022-10-22T09:31:52;12.88;;;6.03;;
17253;SDS011;32542;52.832;13.816;2022-10-22T09:34:56;11.02;;;6.72;;
17253;SDS011;32542;52.832;13.816;2022-10-22T09:38:05;10.02;;;6.43;;
17253;SDS011;32542;52.832;13.816;2022-10-22T09:41:09;9.70;;;6.28;;
17253;SDS011;32542;52.832;13.816;2022-10-22T09:44:13;11.73;;;7.13;;
17253;SDS011;32542;52.832;13.816;2022-10-22T09:47:25;11.95;;;6.95;;
17253;SDS011;32542;52.832;13.816;2022-10-22T09:50:45;12.68;;;6.43;;
17253;SDS011;32542;52.832;13.816;2022-10-22T09:53:54;11.30;;;6.00;;
17253;SDS011;32542;52.832;13.816;2022-10-22T09:57:01;11.20;;;5.93;;
17253;SDS011;32542;52.832;13.816;2022-10-22T10:00:08;10.98;;;5.90;;
17253;SDS011;32542;52.832;13.816;2022-10-22T10:03:14;11.90;;;5.85;;
17253;SDS011;32542;52.832;13.816;2022-10-22T10:06:19;8.73;;;5.50;;
17253;SDS011;32542;52.832;13.816;2022-10-22T10:09:24;9.13;;;4.68;;
17253;SDS011;32542;52.832;13.816;2022-10-22T10:12:32;10.50;;;5.03;;
17253;SDS011;32542;52.832;13.816;2022-10-22T10:15:45;11.98;;;6.32;;
17253;SDS011;32542;52.832;13.816;2022-10-22T10:18:57;11.18;;;5.63;;
17253;SDS011;32542;52.832;13.816;2022-10-22T10:22:10;13.27;;;5.18;;
17253;SDS011;32542;52.832;13.816;2022-10-22T10:25:27;13.45;;;4.50;;
17253;SDS011;32542;52.832;13.816;2022-10-22T10:28:47;19.10;;;4.72;;
17253;SDS011;32542;52.832;13.816;2022-10-22T10:32:05;12.07;;;4.40;;
17253;SDS011;32542;52.832;13.816;2022-10-22T10:35:24;16.27;;;4.60;;
17253;SDS011;32542;52.832;13.816;2022-10-22T10:38:41;6.75;;;3.90;;
17253;SDS011;32542;52.832;13.816;2022-10-22T10:41:55;17.85;;;5.30;;
17253;SDS011;32542;52.832;13.816;2022-10-22T10:45:09;8.20;;;4.45;;
17253;SDS011;32542;52.832;13.816;2022-10-22T10:51:52;14.13;;;3.78;;
17253;SDS011;32542;52.832;13.816;2022-10-22T10:55:05;10.07;;;4.18;;
17253;SDS011;32542;52.832;13.816;2022-10-22T10:58:17;7.43;;;3.78;;
17253;SDS011;32542;52.832;13.816;2022-10-22T11:01:28;6.18;;;3.50;;
17253;SDS011;32542;52.832;13.816;2022-10-22T11:04:43;11.75;;;3.65;;
17253;SDS011;32542;52.832;13.816;2022-10-22T11:08:01;8.63;;;4.43;;
17253;SDS011;32542;52.832;13.816;2022-10-22T11:11:10;9.90;;;3.70;;
17253;SDS011;32542;52.832;13.816;2022-10-22T11:14:18;6.53;;;3.50;;
17253;SDS011;32542;52.832;13.816;2022-10-22T11:17:31;7.45;;;3.70;;
17253;SDS011;32542;52.832;13.816;2022-10-22T11:20:48;9.32;;;3.83;;
17253;SDS011;32542;52.832;13.816;2022-10-22T11:23:56;9.00;;;4.05;;
17253;SDS011;32542;52.832;13.816;2022-10-22T11:27:06;12.15;;;4.15;;
17253;SDS011;32542;52.832;13.816;2022-10-22T11:30:13;18.20;;;5.75;;
17253;SDS011;32542;52.832;13.816;2022-10-22T11:33:20;19.83;;;6.45;;
17253;SDS011;32542;52.832;13.816;2022-10-22T11:36:26;14.32;;;5.63;;
17253;SDS011;32542;52.832;13.816;2022-10-22T11:39:37;17.13;;;6.47;;
17253;SDS011;32542;52.832;13.816;2022-10-22T11:42:44;15.95;;;6.97;;
17253;SDS011;32542;52.832;13.816;2022-10-22T11:45:49;18.92;;;7.80;;
17253;SDS011;32542;52.832;13.816;2022-10-22T11:49:01;10.27;;;6.60;;
17253;SDS011;32542;52.832;13.816;2022-10-22T11:55:31;13.57;;;5.88;;
17253;SDS011;32542;52.832;13.816;2022-10-22T11:58:38;13.40;;;6.38;;
17253;SDS011;32542;52.832;13.816;2022-10-22T12:01:44;14.73;;;5.53;;
17253;SDS011;32542;52.832;13.816;2022-10-22T12:04:49;8.77;;;4.82;;
17253;SDS011;32542;52.832;13.816;2022-10-22T12:07:54;12.27;;;4.90;;
17253;SDS011;32542;52.832;13.816;2022-10-22T12:11:04;9.38;;;4.50;;
17253;SDS011;32542;52.832;13.816;2022-10-22T12:14:16;13.20;;;4.60;;
17253;SDS011;32542;52.832;13.816;2022-10-22T12:17:23;7.43;;;4.07;;
17253;SDS011;32542;52.832;13.816;2022-10-22T12:20:27;18.38;;;4.97;;
17253;SDS011;32542;52.832;13.816;2022-10-22T12:23:33;15.45;;;4.78;;
17253;SDS011;32542;52.832;13.816;2022-10-22T12:26:36;10.52;;;3.90;;
17253;SDS011;32542;52.832;13.816;2022-10-22T12:29:39;21.60;;;4.90;;
17253;SDS011;32542;52.832;13.816;2022-10-22T12:32:42;9.60;;;3.88;;
17253;SDS011;32542;52.832;13.816;2022-10-22T12:35:46;17.17;;;4.90;;
17253;SDS011;32542;52.832;13.816;2022-10-22T12:38:54;10.80;;;4.03;;
17253;SDS011;32542;52.832;13.816;2022-10-22T12:42:02;10.32;;;4.35;;
17253;SDS011;32542;52.832;13.816;2022-10-22T12:45:07;24.42;;;6.32;;
17253;SDS011;32542;52.832;13.816;2022-10-22T12:48:13;10.23;;;4.47;;
17253;SDS011;32542;52.832;13.816;2022-10-22T12:51:20;9.63;;;4.70;;
17253;SDS011;32542;52.832;13.816;2022-10-22T12:54:26;12.73;;;4.75;;
17253;SDS011;32542;52.832;13.816;2022-10-22T12:57:31;12.73;;;4.38;;
17253;SDS011;32542;52.832;13.816;2022-10-22T13:00:34;13.93;;;4.07;;
17253;SDS011;32542;52.832;13.816;2022-10-22T13:03:39;11.10;;;3.83;;
17253;SDS011;32542;52.832;13.816;2022-10-22T13:06:45;13.32;;;4.18;;
17253;SDS011;32542;52.832;13.816;2022-10-22T13:09:57;9.15;;;3.80;;
17253;SDS011;32542;52.832;13.816;2022-10-22T13:13:01;9.45;;;3.65;;
17253;SDS011;32542;52.832;13.816;2022-10-22T13:16:13;7.20;;;3.58;;
17253;SDS011;32542;52.832;13.816;2022-10-22T13:22:50;12.20;;;3.67;;
17253;SDS011;32542;52.832;13.816;2022-10-22T13:26:00;9.05;;;3.72;;
17253;SDS011;32542;52.832;13.816;2022-10-22T13:29:08;9.63;;;3.35;;
17253;SDS011;32542;52.832;13.816;2022-10-22T13:32:24;8.75;;;3.83;;
17253;SDS011;32542;52.832;13.816;2022-10-22T13:35:30;11.25;;;3.42;;
17253;SDS011;32542;52.832;13.816;2022-10-22T13:38:35;8.15;;;3.83;;
17253;SDS011;32542;52.832;13.816;2022-10-22T13:41:40;12.18;;;3.53;;
17253;SDS011;32542;52.832;13.816;2022-10-22T13:44:43;10.23;;;3.60;;
17253;SDS011;32542;52.832;13.816;2022-10-22T13:47:48;9.90;;;4.05;;
17253;SDS011;32542;52.832;13.816;2022-10-22T13:50:52;11.70;;;3.50;;
17253;SDS011;32542;52.832;13.816;2022-10-22T13:53:55;7.85;;;3.78;;
17253;SDS011;32542;52.832;13.816;2022-10-22T13:57:00;10.15;;;3.67;;
17253;SDS011;32542;52.832;13.816;2022-10-22T14:00:03;6.38;;;3.53;;
17253;SDS011;32542;52.832;13.816;2022-10-22T14:03:13;6.57;;;3.10;;
17253;SDS011;32542;52.832;13.816;2022-10-22T14:06:18;9.35;;;3.35;;
17253;SDS011;32542;52.832;13.816;2022-10-22T14:09:23;8.95;;;3.67;;
17253;SDS011;32542;52.832;13.816;2022-10-22T14:12:27;7.25;;;3.38;;
17253;SDS011;32542;52.832;13.816;2022-10-22T14:15:30;7.13;;;3.25;;
17253;SDS011;32542;52.832;13.816;2022-10-22T14:18:33;6.57;;;3.17;;
17253;SDS011;32542;52.832;13.816;2022-10-22T14:21:37;6.88;;;3.33;;
17253;SDS011;32542;52.832;13.816;2022-10-22T14:24:40;11.90;;;3.70;;
17253;SDS011;32542;52.832;13.816;2022-10-22T14:27:44;15.65;;;3.70;;
17253;SDS011;32542;52.832;13.816;2022-10-22T14:30:47;8.75;;;3.90;;
17253;SDS011;32542;52.832;13.816;2022-10-22T14:33:51;13.70;;;3.83;;
17253;SDS011;32542;52.832;13.816;2022-10-22T14:36:54;13.23;;;3.63;;
17253;SDS011;32542;52.832;13.816;2022-10-22T14:39:57;11.98;;;3.17;;
17253;SDS011;32542;52.832;13.816;2022-10-22T14:43:04;8.48;;;3.50;;
17253;SDS011;32542;52.832;13.816;2022-10-22T14:46:07;11.40;;;3.30;;
17253;SDS011;32542;52.832;13.816;2022-10-22T14:49:12;9.82;;;3.33;;
17253;SDS011;32542;52.832;13.816;2022-10-22T14:52:15;9.63;;;3.67;;
17253;SDS011;32542;52.832;13.816;2022-10-22T14:55:18;13.77;;;3.75;;
17253;SDS011;32542;52.832;13.816;2022-10-22T14:58:23;9.90;;;3.15;;
17253;SDS011;32542;52.832;13.816;2022-10-22T15:01:26;7.72;;;3.45;;
17253;SDS011;32542;52.832;13.816;2022-10-22T15:04:28;9.07;;;3.10;;
17253;SDS011;32542;52.832;13.816;2022-10-22T15:07:31;17.20;;;4.07;;
17253;SDS011;32542;52.832;13.816;2022-10-22T15:10:34;10.60;;;3.47;;
17253;SDS011;32542;52.832;13.816;2022-10-22T15:13:38;13.20;;;4.07;;
17253;SDS011;32542;52.832;13.816;2022-10-22T15:16:42;7.15;;;3.78;;
17253;SDS011;32542;52.832;13.816;2022-10-22T15:19:45;11.23;;;3.83;;
17253;SDS011;32542;52.832;13.816;2022-10-22T15:22:48;6.53;;;3.38;;
17253;SDS011;32542;52.832;13.816;2022-10-22T15:25:51;16.15;;;3.53;;
17253;SDS011;32542;52.832;13.816;2022-10-22T15:28:55;9.70;;;3.60;;
17253;SDS011;32542;52.832;13.816;2022-10-22T15:31:58;8.75;;;3.25;;
17253;SDS011;32542;52.832;13.816;2022-10-22T15:35:01;7.78;;;3.30;;
17253;SDS011;32542;52.832;13.816;2022-10-22T15:38:06;11.88;;;4.00;;
17253;SDS011;32542;52.832;13.816;2022-10-22T15:41:09;10.27;;;3.80;;
17253;SDS011;32542;52.832;13.816;2022-10-22T15:44:15;8.98;;;3.97;;
17253;SDS011;32542;52.832;13.816;2022-10-22T15:47:20;11.48;;;3.72;;
17253;SDS011;32542;52.832;13.816;2022-10-22T15:50:23;8.35;;;3.80;;
17253;SDS011;32542;52.832;13.816;2022-10-22T15:53:25;13.05;;;3.95;;
17253;SDS011;32542;52.832;13.816;2022-10-22T15:56:29;9.88;;;3.40;;
17253;SDS011;32542;52.832;13.816;2022-10-22T15:59:33;7.55;;;3.35;;
17253;SDS011;32542;52.832;13.816;2022-10-22T16:02:36;7.95;;;3.65;;
17253;SDS011;32542;52.832;13.816;2022-10-22T16:05:39;9.73;;;3.50;;
17253;SDS011;32542;52.832;13.816;2022-10-22T16:08:42;8.93;;;3.40;;
17253;SDS011;32542;52.832;13.816;2022-10-22T16:11:45;8.43;;;3.72;;
17253;SDS011;32542;52.832;13.816;2022-10-22T16:14:50;7.30;;;3.72;;
17253;SDS011;32542;52.832;13.816;2022-10-22T16:17:53;7.15;;;3.95;;
17253;SDS011;32542;52.832;13.816;2022-10-22T16:20:55;8.35;;;3.70;;
17253;SDS011;32542;52.832;13.816;2022-10-22T16:23:59;9.38;;;3.30;;
17253;SDS011;32542;52.832;13.816;2022-10-22T16:27:06;7.75;;;3.58;;
17253;SDS011;32542;52.832;13.816;2022-10-22T16:30:12;6.55;;;3.25;;
17253;SDS011;32542;52.832;13.816;2022-10-22T16:33:15;9.20;;;3.15;;
17253;SDS011;32542;52.832;13.816;2022-10-22T16:36:18;6.55;;;3.40;;
17253;SDS011;32542;52.832;13.816;2022-10-22T16:39:22;8.18;;;3.33;;
17253;SDS011;32542;52.832;13.816;2022-10-22T16:42:25;7.47;;;3.35;;
17253;SDS011;32542;52.832;13.816;2022-10-22T16:45:29;7.95;;;3.58;;
17253;SDS011;32542;52.832;13.816;2022-10-22T16:48:32;7.65;;;3.60;;
17253;SDS011;32542;52.832;13.816;2022-10-22T16:51:35;9.45;;;3.42;;
17253;SDS011;32542;52.832;13.816;2022-10-22T16:54:38;7.85;;;3.28;;
17253;SDS011;32542;52.832;13.816;2022-10-22T16:57:41;7.80;;;3.30;;
17253;SDS011;32542;52.832;13.816;2022-10-22T17:00:45;13.02;;;4.03;;
17253;SDS011;32542;52.832;13.816;2022-10-22T17:03:48;12.52;;;4.15;;
17253;SDS011;32542;52.832;13.816;2022-10-22T17:06:51;13.00;;;3.95;;
17253;SDS011;32542;52.832;13.816;2022-10-22T17:09:54;9.70;;;3.58;;
17253;SDS011;32542;52.832;13.816;2022-10-22T17:12:57;13.45;;;4.03;;
17253;SDS011;32542;52.832;13.816;2022-10-22T17:16:02;9.20;;;4.07;;
17253;SDS011;32542;52.832;13.816;2022-10-22T17:19:06;19.88;;;3.80;;
17253;SDS011;32542;52.832;13.816;2022-10-22T17:22:09;6.35;;;3.28;;
17253;SDS011;32542;52.832;13.816;2022-10-22T17:25:18;9.15;;;3.30;;
17253;SDS011;32542;52.832;13.816;2022-10-22T17:28:23;14.18;;;4.15;;
17253;SDS011;32542;52.832;13.816;2022-10-22T17:31:28;10.60;;;3.92;;
17253;SDS011;32542;52.832;13.816;2022-10-22T17:34:33;8.40;;;3.67;;
17253;SDS011;32542;52.832;13.816;2022-10-22T17:37:36;9.68;;;3.88;;
17253;SDS011;32542;52.832;13.816;2022-10-22T17:40:39;6.43;;;3.70;;
17253;SDS011;32542;52.832;13.816;2022-10-22T17:43:42;14.15;;;4.43;;
17253;SDS011;32542;52.832;13.816;2022-10-22T17:46:52;9.13;;;3.53;;
17253;SDS011;32542;52.832;13.816;2022-10-22T17:49:55;9.85;;;3.88;;
17253;SDS011;32542;52.832;13.816;2022-10-22T17:52:58;11.50;;;3.70;;
17253;SDS011;32542;52.832;13.816;2022-10-22T17:56:02;9.25;;;3.40;;
17253;SDS011;32542;52.832;13.816;2022-10-22T17:59:07;7.72;;;4.00;;
17253;SDS011;32542;52.832;13.816;2022-10-22T18:02:15;8.18;;;4.75;;
17253;SDS011;32542;52.832;13.816;2022-10-22T18:05:19;7.63;;;3.60;;
17253;SDS011;32542;52.832;13.816;2022-10-22T18:08:22;12.75;;;4.53;;
17253;SDS011;32542;52.832;13.816;2022-10-22T18:11:26;9.40;;;3.33;;
17253;SDS011;32542;52.832;13.816;2022-10-22T18:14:31;7.85;;;3.90;;
17253;SDS011;32542;52.832;13.816;2022-10-22T18:17:36;12.23;;;4.20;;
17253;SDS011;32542;52.832;13.816;2022-10-22T18:20:40;6.88;;;4.03;;